Home   Weather   Germany   Seelze   Past weeks
Flag for Germany

Past Weather in Seelze, Lower Saxony, Germany — Yesterday and Last 2 Weeks

Currently: 73 °F. Passing clouds. (Weather station: Hannover, Germany). See more current weather

Past Weather in Seelze — Graph

°F

Seelze Temperature Yesterday

Maximum temperature yesterday: 70 °F (at 1:20 pm)
Minimum temperature yesterday: 59 °F (at 4:20 am)
Average temperature yesterday: 64 °F

High & Low Weather Summary for the Past Weeks

 TemperatureHumidityPressure
High82 °F (Jul 24, 2:50 pm)100% (Jul 16, 4:20 am)30.21 "Hg (Jul 16, 4:20 am)
Low48 °F (Jul 23, 5:50 am)42% (Jul 24, 4:20 pm)29.74 "Hg (Jul 24, 6:20 pm)
Average67 °F73%30.00 "Hg
* Reported Jul 15 10:20 am — Jul 30 10:20 am, Seelze. Weather by CustomWeather, © 2021

Note: Actual official high and low records may vary slightly from our data, if they occured in-between our weather recording intervals... More about our weather records

Seelze Weather History for the Previous 24 Hours

Scroll right to see more
 ConditionsComfort  
Time TempWeatherWind HumidityBarometerVisibility
10:20 am
Fri, Jul 30
66 °FScattered clouds.9 mph60%29.80 "HgN/A
9:50 am66 °FScattered clouds.9 mph56%29.80 "HgN/A
9:20 am64 °FPassing clouds.12 mph64%29.83 "HgN/A
8:50 am64 °FPassing clouds.10 mph64%29.83 "HgN/A
8:20 am63 °FSunny.8 mph68%29.83 "Hg10 mi
7:50 am61 °FPassing clouds.5 mph72%29.83 "HgN/A
7:20 am59 °FSunny.5 mph72%29.83 "Hg10 mi
6:50 am57 °FPassing clouds.5 mph77%29.83 "HgN/A
6:20 am55 °FSunny.5 mph82%29.83 "Hg10 mi
5:50 am55 °FSunny.5 mph77%29.83 "Hg10 mi
5:20 am55 °FPassing clouds.6 mph82%29.83 "HgN/A
4:50 am55 °FPassing clouds.6 mph82%29.83 "HgN/A
4:20 am55 °FPassing clouds.6 mph77%29.83 "HgN/A
3:50 am57 °FPassing clouds.5 mph77%29.83 "HgN/A
3:20 am57 °FPassing clouds.5 mph77%29.83 "HgN/A
2:50 am57 °FPassing clouds.6 mph77%29.83 "HgN/A
2:20 am55 °FPassing clouds.2 mph82%29.83 "HgN/A
1:50 am57 °FPassing clouds.2 mph77%29.83 "HgN/A
1:20 am57 °FPassing clouds.No wind77%29.83 "HgN/A
12:50 am59 °FClear.1 mph72%29.83 "Hg10 mi
12:20 am61 °FPassing clouds.3 mph68%29.83 "HgN/A
11:50 pm
Thu, Jul 29
61 °FClear.6 mph68%29.83 "Hg10 mi
11:20 pm61 °FClear.6 mph68%29.83 "Hg10 mi
10:50 pm63 °FClear.5 mph64%29.83 "Hg10 mi
10:20 pm63 °FClear.5 mph64%29.83 "Hg10 mi
9:50 pm63 °FClear.5 mph64%29.83 "Hg10 mi
9:20 pm64 °FPassing clouds.3 mph56%29.83 "HgN/A
8:50 pm66 °FSunny.7 mph52%29.83 "Hg10 mi
8:20 pm66 °FSunny.9 mph52%29.83 "Hg10 mi
7:50 pm68 °FSunny.13 mph49%29.83 "Hg10 mi
7:20 pm68 °FPassing clouds.17 mph46%29.83 "HgN/A
6:50 pm68 °FPassing clouds.16 mph46%29.83 "HgN/A
6:20 pm68 °FSunny.17 mph49%29.83 "Hg10 mi
5:50 pm68 °FPassing clouds.16 mph49%29.83 "HgN/A
5:20 pm70 °FPassing clouds.17 mph46%29.83 "HgN/A
4:50 pm70 °FPassing clouds.18 mph43%29.83 "HgN/A
4:20 pm70 °FPassing clouds.20 mph43%29.83 "HgN/A
3:50 pm70 °FPassing clouds.20 mph46%29.83 "HgN/A
3:20 pm68 °FPassing clouds.17 mph49%29.83 "HgN/A
2:50 pm70 °FSunny.20 mph46%29.83 "Hg10 mi
1:50 pm68 °FScattered clouds.16 mph49%29.83 "HgN/A
1:20 pm70 °FScattered clouds.21 mph53%29.83 "HgN/A
Weather by CustomWeather, © 2021

See weather overview